METAR Data
IDs: Format: Raw Decoded Include TAF

Data at: 2034 UTC 14 Dec 2018

KE11 142015Z AUTO 36013G18KT 10SM CLR 12/M15 A3029 RMK AO2 T01201148
KE11 141955Z AUTO 02013G17KT 10SM CLR 12/M14 A3030 RMK AO2 T01151138
KE11 141935Z AUTO 33010KT 10SM CLR 11/M12 A3032 RMK AO2 T01091124
KE11 141915Z AUTO 34014G19KT 10SM CLR 10/M12 A3032 RMK AO2 T01031125
KE11 141855Z AUTO 32012G19KT 10SM CLR 10/M12 A3033 RMK AO2 T01001118
KE11 141835Z AUTO 34009G18KT 10SM CLR 10/M12 A3034 RMK AO2 T00951122
KE11 141815Z AUTO 35015G18KT 10SM CLR 09/M12 A3035 RMK AO2 T00901124
KE11 141755Z AUTO 35015G19KT 10SM CLR 09/M13 A3036 RMK AO2 T00861130 10086 21021
KE11 141735Z AUTO 34015G20KT 10SM CLR 08/M12 A3037 RMK AO2 T00791122
KE11 141715Z AUTO 34015G21KT 10SM CLR 08/M13 A3037 RMK AO2 T00761126
KE11 141655Z AUTO 01017G24KT 10SM CLR 07/M13 A3037 RMK AO2 T00661130
KE11 141635Z AUTO 34015G23KT 10SM CLR 06/M12 A3037 RMK AO2 T00611121
KE11 141615Z AUTO 35015G23KT 10SM CLR 05/M11 A3037 RMK AO2 T00501114
KE11 141555Z AUTO 34014KT 10SM CLR 04/M11 A3036 RMK AO2 T00371111
KE11 141535Z AUTO 34015G21KT 10SM CLR 03/M11 A3035 RMK AO2 T00281109
KE11 141515Z AUTO 35013KT 10SM CLR 02/M10 A3034 RMK AO2 T00181103
KE11 141455Z AUTO 33012KT 10SM CLR 01/M10 A3033 RMK AO2 T00071101
KE11 141435Z AUTO 33010KT 10SM CLR 00/M10 A3032 RMK AO2 T00001100
KE11 141415Z AUTO 33011KT 10SM CLR M01/M10 A3032 RMK AO2 T10091100
KE11 141355Z AUTO 33011G17KT 10SM CLR M01/M10 A3031 RMK AO2 T10121100
KE11 141335Z AUTO 33013G17KT 10SM CLR M02/M10 A3030 RMK AO2 T10171096
KE11 141315Z AUTO 31010G16KT 10SM CLR M02/M09 A3030 RMK AO2 T10201095
KE11 141255Z AUTO 32010KT 10SM CLR M02/M10 A3028 RMK AO2 T10201096
KE11 141235Z AUTO 32010G15KT 10SM CLR M02/M10 A3028 RMK AO2 T10161100
KE11 141215Z AUTO 32011KT 10SM CLR M01/M10 A3027 RMK AO2 T10111102
KE11 141155Z AUTO 33013KT 10SM CLR M01/M10 A3026 RMK AO2 70018 T10101103 10016 21014
KE11 141135Z AUTO 33012KT 10SM CLR M01/M10 A3025 RMK AO2 T10081103
KE11 141110Z AUTO 35012KT 10SM CLR M01/M10 A3025 RMK AO2 T10061103
KE11 141055Z AUTO 35013G18KT 10SM CLR M01/M10 A3025 RMK AO2 T10101100
KE11 141035Z AUTO 34012KT 10SM CLR M01/M10 A3025 RMK AO2 T10101097
KE11 141015Z AUTO 34012KT 10SM CLR M01/M09 A3025 RMK AO2 T10121095
KE11 140955Z AUTO 34009KT 10SM CLR M01/M09 A3025 RMK AO2 T10121095
KE11 140935Z AUTO 33012KT 10SM CLR M01/M09 A3025 RMK AO2 T10101093
KE11 140915Z AUTO 33012KT 10SM CLR M01/M09 A3025 RMK AO2 T10091092
KE11 140855Z AUTO 34011KT 10SM CLR M01/M09 A3025 RMK AO2 T10061091
KE11 140835Z AUTO 34013G17KT 10SM CLR 00/M09 A3024 RMK AO2 T10051090
KE11 140815Z AUTO 34013KT 10SM CLR 00/M09 A3024 RMK AO2 T10051090
KE11 140755Z AUTO 32011KT 10SM CLR 00/M09 A3024 RMK AO2 T10031090
KE11 140735Z AUTO 32012KT 10SM CLR 00/M09 A3024 RMK AO2 T00001090
KE11 140715Z AUTO 33011G16KT 10SM CLR 00/M09 A3024 RMK AO2 T00001090
KE11 140655Z AUTO 32011G15KT 10SM CLR 00/M09 A3023 RMK AO2 T00011088
KE11 140635Z AUTO 33011KT 10SM CLR 00/M09 A3024 RMK AO2 T00011088
KE11 140615Z AUTO 32009KT 10SM CLR 01/M09 A3024 RMK AO2 T00121093
KE11 140555Z AUTO 35012G18KT 10SM CLR 02/M10 A3023 RMK AO2 T00161098 10073 20016
KE11 140535Z AUTO 35014KT 10SM CLR 02/M10 A3023 RMK AO2 T00171097
KE11 140515Z AUTO 35013KT 10SM CLR 02/M09 A3022 RMK AO2 T00191093
KE11 140455Z AUTO 34014KT 10SM CLR 02/M09 A3022 RMK AO2 T00221094 401190012
KE11 140435Z AUTO 34014G19KT 10SM CLR 02/M09 A3022 RMK AO2 T00221092
KE11 140415Z AUTO 34012KT 10SM CLR 02/M09 A3021 RMK AO2 T00201088
KE11 140355Z AUTO 32012G16KT 10SM CLR 02/M08 A3021 RMK AO2 T00201085
KE11 140335Z AUTO 33011KT 10SM CLR 02/M08 A3021 RMK AO2 T00231085
KE11 140315Z AUTO 34012KT 10SM CLR 03/M08 A3020 RMK AO2 T00271085
KE11 140255Z AUTO 33011KT 10SM CLR 03/M09 A3020 RMK AO2 T00301086
KE11 140235Z AUTO 33013KT 10SM CLR 04/M09 A3019 RMK AO2 T00381091
KE11 140215Z AUTO 33012KT 10SM CLR 04/M09 A3018 RMK AO2 T00431093
KE11 140155Z AUTO 34014KT 10SM CLR 05/M09 A3017 RMK AO2 T00471095
KE11 140135Z AUTO 34014G18KT 10SM CLR 05/M10 A3017 RMK AO2 T00521096
KE11 140115Z AUTO 34015G23KT 10SM CLR 06/M11 A3016 RMK AO2 T00581106
KE11 140055Z AUTO 34018G23KT 10SM CLR 06/M10 A3014 RMK AO2 T00621105
KE11 140035Z AUTO 34017G27KT 10SM CLR 07/M11 A3014 RMK AO2 T00661107
KE11 140015Z AUTO 34016G24KT 10SM SCT048 07/M10 A3012 RMK AO2 T00671103
KE11 132355Z AUTO 34018G26KT 10SM SCT038 BKN046 07/M10 A3011 RMK AO2 T00731104 10091 20050
KE11 132335Z AUTO 34015G24KT 7SM BKN037 BKN043 BKN049 08/M10 A3011 RMK AO2 T00751102
KE11 132315Z AUTO 35022G32KT 7SM BKN035 OVC045 08/M11 A3011 RMK AO2 T00821113
KE11 132255Z AUTO 34023G35KT 10SM BKN040 OVC046 09/M11 A3009 RMK AO2 T00861108
KE11 132235Z AUTO 34026G33KT 10SM BKN039 BKN048 09/M10 A3009 RMK AO2 T00891098
KE11 132215Z AUTO 34029G35KT 10SM SCT042 BKN050 09/M09 A3007 RMK AO2 T00901086
KE11 132155Z AUTO 35027G39KT 7SM SCT030 BKN036 OVC044 09/M09 A3007 RMK AO2 T00901090
KE11 132135Z AUTO 36028G37KT 7SM BKN035 OVC042 09/M08 A3006 RMK AO2 T00911084
KE11 132115Z AUTO 35025G37KT 5SM HZ BKN035 OVC042 09/M07 A3006 RMK AO2 T00901074
KE11 132055Z AUTO 35029G41KT 7SM SCT027 OVC034 09/M07 A3006 RMK AO2 T00851072
KE11 132035Z AUTO 35025G40KT 7SM OVC032 08/M07 A3006 RMK AO2 LTG DSNT NE T00821073
KE11 132015Z AUTO 35030G40KT 7SM BKN030 BKN036 08/M07 A3005 RMK AO2 T00831070
KE11 131955Z AUTO 35022G33KT 10SM CLR 09/M06 A3005 RMK AO2 T00851056
KE11 131935Z AUTO 36029G43KT 10SM SCT080 SCT090 08/M05 A3004 RMK AO2 LTG DSNT NE T00791054
KE11 131915Z AUTO 35025G36KT 10SM SCT070 SCT080 07/M05 A3005 RMK AO2 T00731055
KE11 131855Z AUTO 35026G34KT 10SM SCT045 BKN060 BKN070 07/M04 A3005 RMK AO2 T00681044
KE11 131835Z AUTO 36028G35KT 10SM BKN048 OVC050 06/M03 A3005 RMK AO2 T00561031
KE11 131815Z AUTO 36025G33KT 10SM SCT039 OVC047 05/M02 A3005 RMK AO2 T00521020
KE11 131755Z AUTO 36033G45KT 10SM SCT033 BKN040 OVC046 05/M02 A3005 RMK AO2 60018 T00501016 10072 20012
KE11 131735Z AUTO 36027G35KT 10SM BKN033 OVC041 04/00 A3005 RMK AO2 T00391005
KE11 131715Z AUTO 35021G28KT 10SM -RA SCT020 BKN033 OVC040 03/01 A3006 RMK AO2 T00320010
KE11 131655Z AUTO 35020G32KT 10SM -RA SCT011 SCT015 OVC020 03/03 A3006 RMK AO2 LTG DSNT NE P0005 T00250025
KE11 131635Z AUTO 33018G24KT 7SM -RA BKN011 OVC016 03/03 A3005 RMK AO2 P0003 T00250025
KE11 131615Z AUTO 34019G27KT 3SM UP BKN013 OVC019 03/03 A3003 RMK AO2 P0002 T00250025
KE11 131555Z AUTO 34025G37KT 5SM -RA SCT013 BKN021 OVC026 03/02 A3002 RMK AO2 P0006 T00260015
KE11 131535Z AUTO 36024G29KT 4SM -RA OVC010 02/02 A3000 RMK AO2 P0004 T00220022
KE11 131515Z AUTO 34019G29KT 2SM -SN OVC008 02/02 A2998 RMK AO2 P0002 T00200020
KE11 131455Z AUTO 33015G19KT 5SM RA BKN008 OVC012 02/02 A2996 RMK AO2 P0007 60007 T00150015
KE11 131435Z AUTO 34018G25KT 3SM -SN OVC008 02/02 A2994 RMK AO2 P0004 T00150015
KE11 131415Z AUTO 35017G24KT 7SM RA OVC008 02/02 A2992 RMK AO2 P0001 T00150015
KE11 131355Z AUTO 35018G23KT 10SM RA OVC010 03/01 A2990 RMK AO2 T00250011
KE11 131335Z AUTO 35017G26KT 10SM OVC012 03/01 A2988 RMK AO2 T00310005
KE11 131315Z AUTO 36017G22KT 10SM OVC014 04/01 A2987 RMK AO2 T00410011
KE11 131255Z AUTO 34013KT 10SM BKN018 BKN032 OVC100 04/00 A2984 RMK AO2 T00420004
KE11 131235Z AUTO 34017G24KT 10SM SCT032 BKN043 OVC100 05/00 A2983 RMK AO2 T00481004
KE11 131215Z AUTO 34017G28KT 10SM SCT032 BKN070 OVC085 06/M01 A2984 RMK AO2 T00551006
KE11 131155Z AUTO 33022G27KT 10SM SCT044 BKN070 OVC085 07/M03 A2980 RMK AO2 T00731030 10111 20073
KE11 131135Z AUTO 32015G23KT 10SM SCT047 BKN075 OVC110 08/M02 A2979 RMK AO2 T00781023
KE11 131115Z AUTO 32016G26KT 10SM SCT049 BKN060 OVC070 08/M03 A2977 RMK AO2 T00811031
KE11 131055Z AUTO 31019G24KT 10SM OVC065 08/M02 A2977 RMK AO2 T00811019
KE11 131035Z AUTO 32021G30KT 10SM OVC060 09/M01 A2977 RMK AO2 T00851009
KE11 131015Z AUTO 30018G24KT 10SM BKN060 09/02 A2976 RMK AO2 LTG DSNT NE T00880015
KE11 130955Z AUTO 31018G31KT 10SM SCT120 09/03 A2975 RMK AO2 T00900025
KE11 130935Z AUTO 29012KT 10SM SCT120 10/03 A2975 RMK AO2 T00970032
KE11 130915Z AUTO 29015G20KT 10SM BKN110 10/04 A2975 RMK AO2 LTG DSNT E T01040035
KE11 130855Z AUTO 28015G21KT 10SM OVC100 11/04 A2973 RMK AO2 T01090041
KE11 130835Z AUTO 26011G16KT 10SM BKN100 10/05 A2972 RMK AO2 T01010046